Time;durP1;ratioP1;P1;durP2;ratioP2;P2;SDS_P1;SDS_P2;PMS_P1;PMS_P2;Temp;Humidity;BMP_temperature;BMP_pressure;BME280_temperature;BME280_humidity;BME280_pressure;Samples;Min_cycle;Max_cycle;Signal;HPM_P1;HPM_P2
2022/04/26 03:37:56;;;;;;;1.57;0.77;;;21.50;73.60;;;;;;5071337;28;20432;-68
2022/04/26 03:40:22;;;;;;;1.10;1.10;;;;;;;;;;5069186;28;20402;-69
2022/04/26 03:42:47;;;;;;;0.90;0.90;;;;;;;;;;5069223;28;20208;-68
2022/04/26 03:45:13;;;;;;;0.60;0.60;;;;;;;;;;5085483;28;20174;-68
2022/04/26 03:47:39;;;;;;;0.90;0.90;;;;;;;;;;5089300;28;20171;-68
2022/04/26 03:50:05;;;;;;;0.70;0.70;;;;;;;;;;5083813;28;20239;-68
2022/04/26 03:52:31;;;;;;;0.70;0.70;;;;;;;;;;5069316;28;20175;-68
2022/04/26 03:54:57;;;;;;;0.90;0.90;;;;;;;;;;5069320;28;20451;-68
2022/04/26 03:57:23;;;;;;;0.87;0.87;;;21.40;54.30;;;;;;5069036;28;20225;-68
2022/04/26 03:59:49;;;;;;;0.80;0.80;;;;;;;;;;5070757;28;20209;-68
2022/04/26 04:02:15;;;;;;;0.70;0.70;;;;;;;;;;5088984;28;20801;-68
2022/04/26 04:04:41;;;;;;;0.90;0.90;;;;;;;;;;5069293;28;20910;-68
2022/04/26 04:07:07;;;;;;;1.10;1.10;;;;;;;;;;5082414;28;20815;-68
2022/04/26 04:09:33;;;;;;;1.57;1.47;;;;;;;;;;5069060;28;20934;-68
2022/04/26 04:11:59;;;;;;;0.93;0.93;;;;;;;;;;5081612;28;20839;-68
2022/04/26 04:14:25;;;;;;;0.80;0.80;;;;;;;;;;5089099;28;20206;-69
2022/04/26 04:16:51;;;;;;;0.60;0.60;;;;;;;;;;5072303;28;20519;-68
2022/04/26 04:19:21;;;;;;;0.80;0.80;;;;;;;;;;5068824;28;20229;-68
2022/04/26 04:21:48;;;;;;;0.77;0.77;;;21.30;56.20;;;;;;5070134;28;20449;-68
2022/04/26 04:24:14;;;;;;;0.70;0.70;;;21.40;53.70;;;;;;5073025;28;20405;-68
2022/04/26 04:26:41;;;;;;;1.00;1.00;;;;;;;;;;5087501;28;20534;-68
2022/04/26 04:29:07;;;;;;;0.97;0.90;;;;;;;;;;5092874;28;20425;-68
2022/04/26 04:31:33;;;;;;;0.63;0.63;;;;;;;;;;5079420;28;20420;-69
2022/04/26 04:34:01;;;;;;;0.80;0.80;;;21.30;54.50;;;;;;5086935;28;20227;-68
2022/04/26 04:36:27;;;;;;;1.23;1.23;;;;;;;;;;5080092;28;20623;-68
2022/04/26 04:38:53;;;;;;;0.80;0.80;;;;;;;;;;5077255;28;20930;-68
2022/04/26 04:41:19;;;;;;;0.77;0.77;;;;;;;;;;5092948;28;20464;-68
2022/04/26 04:43:45;;;;;;;0.70;0.70;;;;;;;;;;5093003;28;20822;-68
2022/04/26 04:46:11;;;;;;;1.00;1.00;;;21.40;53.80;;;;;;5081951;28;20550;-68
2022/04/26 04:48:37;;;;;;;1.17;0.70;;;;;;;;;;5072455;28;20483;-68
2022/04/26 04:51:03;;;;;;;0.70;0.70;;;;;;;;;;5083981;28;20921;-68
2022/04/26 04:53:29;;;;;;;0.93;0.93;;;;;;;;;;5074955;28;20913;-68
2022/04/26 04:55:55;;;;;;;0.70;0.70;;;;;;;;;;5072242;28;20796;-68
2022/04/26 04:58:21;;;;;;;0.63;0.63;;;;;;;;;;5072267;28;20520;-68
2022/04/26 05:00:47;;;;;;;0.80;0.80;;;;;;;;;;5072035;28;20266;-68
2022/04/26 05:03:13;;;;;;;1.00;1.00;;;;;;;;;;5080358;28;20513;-68
2022/04/26 05:05:39;;;;;;;0.50;0.50;;;;;;;;;;5070809;28;20429;-68
2022/04/26 05:08:05;;;;;;;0.90;0.90;;;;;;;;;;5071628;28;20936;-68
2022/04/26 05:10:33;;;;;;;0.80;0.80;;;;;;;;;;5069347;28;20501;-68
2022/04/26 05:12:59;;;;;;;0.77;0.77;;;;;;;;;;5071817;28;20421;-68
2022/04/26 05:15:25;;;;;;;0.70;0.70;;;;;;;;;;5075701;28;20424;-68
2022/04/26 05:17:51;;;;;;;0.67;0.67;;;;;;;;;;5091588;28;20444;-68
2022/04/26 05:20:18;;;;;;;1.07;1.07;;;;;;;;;;5092120;28;20408;-68
2022/04/26 05:25:28;;;;;;;0.80;0.60;;;;;;;;;;5072639;28;20508;-68
2022/04/26 05:27:54;;;;;;;1.27;1.27;;;;;;;;;;5062918;28;20907;-68
2022/04/26 05:30:20;;;;;;;2.07;1.97;;;;;;;;;;5069185;28;20401;-68
2022/04/26 05:32:46;;;;;;;2.03;2.03;;;;;;;;;;5079338;28;20424;-68
2022/04/26 05:35:12;;;;;;;2.07;2.07;;;;;;;;;;5091282;28;20408;-68
2022/04/26 05:37:38;;;;;;;3.43;3.30;;;21.00;65.80;;;;;;5076084;28;20459;-68
2022/04/26 05:40:04;;;;;;;5.00;3.30;;;21.30;54.60;;;;;;5071168;28;20409;-67
2022/04/26 05:42:30;;;;;;;2.40;2.30;;;21.50;66.40;;;;;;5073808;28;20696;-68
2022/04/26 05:44:57;;;;;;;2.15;2.05;;;;;;;;;;5070144;28;20821;-68
2022/04/26 05:47:22;;;;;;;1.97;1.87;;;;;;;;;;5071264;28;20628;-68
2022/04/26 05:49:49;;;;;;;1.63;1.63;;;;;;;;;;5070826;28;20446;-67
2022/04/26 05:52:15;;;;;;;1.87;1.77;;;;;;;;;;5090394;28;20986;-68
2022/04/26 05:54:40;;;;;;;1.90;1.80;;;;;;;;;;5064183;28;20429;-70
2022/04/26 05:57:06;;;;;;;1.60;1.60;;;;;;;;;;5071073;28;20882;-70
2022/04/26 05:59:32;;;;;;;1.50;1.50;;;;;;;;;;5077608;28;20764;-69
2022/04/26 06:01:58;;;;;;;1.10;1.10;;;;;;;;;;5071064;28;20519;-70
2022/04/26 06:04:24;;;;;;;1.57;1.47;;;;;;;;;;5078833;28;20530;-70
2022/04/26 06:06:50;;;;;;;1.77;1.77;;;;;;;;;;5074146;28;20175;-70
2022/04/26 06:09:16;;;;;;;1.77;1.67;;;;;;;;;;5070869;28;20801;-69
2022/04/26 06:11:42;;;;;;;1.10;1.10;;;;;;;;;;5071079;28;20516;-69
2022/04/26 06:14:08;;;;;;;1.50;1.43;;;;;;;;;;5081968;28;20448;-69
2022/04/26 06:16:34;;;;;;;1.33;1.33;;;;;;;;;;5091064;28;20445;-70
2022/04/26 06:19:01;;;;;;;1.30;1.30;;;21.30;56.40;;;;;;5076431;28;20565;-70
2022/04/26 06:21:26;;;;;;;1.63;1.53;;;;;;;;;;5070907;28;20463;-70
2022/04/26 06:23:52;;;;;;;1.50;1.50;;;;;;;;;;5076474;28;20413;-69
2022/04/26 06:26:18;;;;;;;1.30;1.30;;;;;;;;;;5071594;28;20453;-69
2022/04/26 06:28:44;;;;;;;1.60;1.50;;;;;;;;;;5069253;28;20223;-69
2022/04/26 06:31:10;;;;;;;1.30;1.20;;;;;;;;;;5070763;28;20829;-71
2022/04/26 06:33:37;;;;;;;1.33;1.27;;;;;;;;;;5070411;28;20198;-69
2022/04/26 06:36:03;;;;;;;1.10;1.10;;;;;;;;;;5070456;28;20484;-68
2022/04/26 06:38:29;;;;;;;1.80;1.70;;;;;;;;;;5070695;28;20619;-67
2022/04/26 06:40:55;;;;;;;1.27;1.27;;;;;;;;;;5069940;28;20500;-69
2022/04/26 06:43:21;;;;;;;1.23;1.23;;;;;;;;;;5078757;28;20207;-71
2022/04/26 06:45:47;;;;;;;1.40;1.40;;;;;;;;;;5082023;28;20444;-67
2022/04/26 06:48:14;;;;;;;1.70;1.60;;;21.70;66.90;;;;;;5070060;28;20425;-69
2022/04/26 06:50:41;;;;;;;1.60;1.50;;;21.70;56.70;;;;;;5071586;28;20894;-68
2022/04/26 06:53:07;;;;;;;1.83;1.70;;;;;;;;;;5069669;28;20436;-68
2022/04/26 06:55:33;;;;;;;1.70;1.60;;;;;;;;;;5069954;28;20427;-67
2022/04/26 06:57:59;;;;;;;1.23;1.23;;;;;;;;;;5070316;28;20930;-68
2022/04/26 07:00:25;;;;;;;1.40;1.40;;;;;;;;;;5070321;28;20401;-69
2022/04/26 07:02:52;;;;;;;2.23;1.40;;;;;;;;;;5085512;28;20932;-69
2022/04/26 07:05:18;;;;;;;1.40;1.40;;;;;;;;;;5083608;28;20737;-70
2022/04/26 07:07:43;;;;;;;1.50;1.40;;;21.80;54.20;;;;;;5069256;28;20423;-70
2022/04/26 07:10:10;;;;;;;1.10;1.10;;;21.80;55.30;;;;;;5069960;28;20505;-71
2022/04/26 07:12:36;;;;;;;4.10;1.17;;;21.80;54.10;;;;;;5070038;28;20193;-70
2022/04/26 07:15:03;;;;;;;1.73;1.67;;;21.70;56.60;;;;;;5088008;28;20527;-70
2022/04/26 07:17:29;;;;;;;1.00;1.00;;;;;;;;;;5069376;28;20441;-70
2022/04/26 07:19:55;;;;;;;1.40;1.30;;;;;;;;;;5069854;28;20444;-71
2022/04/26 07:22:21;;;;;;;1.13;1.13;;;;;;;;;;5069524;28;20512;-66
2022/04/26 07:24:47;;;;;;;1.80;1.30;;;;;;;;;;5068282;28;20968;-67
2022/04/26 07:27:13;;;;;;;1.17;1.17;;;;;;;;;;5083469;28;20412;-71
2022/04/26 07:29:43;;;;;;;1.20;1.20;;;;;;;;;;5081742;28;20434;-75
2022/04/26 07:32:09;;;;;;;1.20;1.20;;;;;;;;;;5071798;28;20252;-72
2022/04/26 07:34:36;;;;;;;1.20;1.10;;;;;;;;;;5074022;28;20786;-71
2022/04/26 07:37:02;;;;;;;1.30;1.30;;;;;;;;;;5069336;28;20496;-68
2022/04/26 07:39:33;;;;;;;1.23;1.23;;;20.70;51.00;;;;;;5087128;28;20527;-70
2022/04/26 07:42:00;;;;;;;1.40;1.40;;;21.90;69.90;;;;;;5077958;28;20275;-69
2022/04/26 07:44:26;;;;;;;1.60;1.60;;;;;;;;;;5069212;28;20417;-72
2022/04/26 07:46:54;;;;;;;1.70;1.38;;;21.80;58.10;;;;;;5074339;28;20424;-70
2022/04/26 07:49:22;;;;;;;1.30;1.30;;;;;;;;;;5089670;28;20186;-71
2022/04/26 07:51:48;;;;;;;1.47;1.37;;;;;;;;;;5076801;28;20417;-68
2022/04/26 07:54:16;;;;;;;1.53;1.53;;;;;;;;;;5069214;28;20796;-68
2022/04/26 07:56:42;;;;;;;1.07;1.07;;;;;;;;;;5068214;28;20432;-67
2022/04/26 07:59:08;;;;;;;1.87;1.40;;;;;;;;;;5069480;28;21025;-71
2022/04/26 08:01:35;;;;;;;1.10;1.10;;;;;;;;;;5070333;28;20456;-68
2022/04/26 08:04:01;;;;;;;1.63;1.53;;;22.00;54.00;;;;;;5075399;28;20198;-72
2022/04/26 08:06:27;;;;;;;1.40;1.27;;;;;;;;;;5067988;28;20475;-70
2022/04/26 08:08:54;;;;;;;8.87;1.33;;;;;;;;;;5079102;28;20497;-70
2022/04/26 08:11:20;;;;;;;1.13;1.13;;;;;;;;;;5087366;28;20851;-69
2022/04/26 08:13:46;;;;;;;1.20;1.20;;;;;;;;;;5072561;28;20811;-70
2022/04/26 08:16:12;;;;;;;1.03;1.03;;;;;;;;;;5069121;28;20405;-71
2022/04/26 08:18:38;;;;;;;1.23;1.00;;;;;;;;;;5068489;28;20593;-72
2022/04/26 08:21:08;;;;;;;1.00;1.00;;;22.00;51.50;;;;;;5069219;28;20714;-67
2022/04/26 08:27:22;;;;;;;1.40;1.30;;;21.10;50.90;;;;;;5083198;28;20431;-71
2022/04/26 08:29:12;;;;;;;1.30;1.30;;;22.10;55.40;;;;;;5089443;28;20472;-69
2022/04/26 08:31:39;;;;;;;1.50;1.40;;;;;;;;;;5074652;28;20819;-68
2022/04/26 08:34:04;;;;;;;1.13;1.13;;;;;;;;;;5087376;28;20458;-70
2022/04/26 08:36:31;;;;;;;1.10;1.10;;;;;;;;;;5079412;28;20831;-70
2022/04/26 08:38:57;;;;;;;1.20;1.20;;;;;;;;;;5070057;28;20272;-68
2022/04/26 08:41:23;;;;;;;0.93;0.93;;;;;;;;;;5068953;28;20551;-69
2022/04/26 08:43:49;;;;;;;1.17;1.10;;;;;;;;;;5069251;28;20496;-69
2022/04/26 08:46:15;;;;;;;1.00;1.00;;;;;;;;;;5068782;28;20199;-68
2022/04/26 08:51:26;;;;;;;1.63;1.17;;;;;;;;;;5080344;28;20488;-69
2022/04/26 08:53:52;;;;;;;1.50;1.40;;;;;;;;;;5069441;28;20402;-69
2022/04/26 08:56:20;;;;;;;1.50;1.50;;;;;;;;;;5068632;28;20407;-69
2022/04/26 08:58:46;;;;;;;1.00;1.00;;;;;;;;;;5068718;28;20428;-69
2022/04/26 09:01:22;;;;;;;1.03;1.03;;;21.90;56.40;;;;;;5068584;28;20849;-69
2022/04/26 09:03:54;;;;;;;1.30;1.30;;;;;;;;;;5071737;28;20428;-72
2022/04/26 09:06:33;;;;;;;1.10;1.00;;;22.30;56.30;;;;;;5086090;28;20441;-72
2022/04/26 09:09:14;;;;;;;1.07;1.07;;;22.10;51.30;;;;;;5070754;28;20592;-72
2022/04/26 09:11:42;;;;;;;1.40;1.40;;;22.20;51.40;;;;;;5090717;28;20805;-70
2022/04/26 09:14:29;;;;;;;0.90;0.90;;;22.20;56.10;;;;;;5084307;28;20758;-69
2022/04/26 09:17:12;;;;;;;1.00;1.00;;;22.40;51.60;;;;;;5054510;28;20437;-69
2022/04/26 09:19:52;;;;;;;1.17;1.10;;;22.00;50.90;;;;;;5070444;28;20544;-71
2022/04/26 09:22:25;;;;;;;1.13;1.10;;;22.10;51.20;;;;;;5091262;28;20462;-68
2022/04/26 09:25:03;;;;;;;3.90;1.37;;;22.20;51.20;;;;;;5082526;28;20449;-68
2022/04/26 09:27:29;;;;;;;2.50;1.40;;;21.90;58.40;;;;;;5087815;28;20445;-69
2022/04/26 09:29:55;;;;;;;1.20;1.10;;;22.20;53.70;;;;;;5087413;28;20568;-69
2022/04/26 09:32:23;;;;;;;1.17;1.17;;;;;;;;;;5091801;28;20436;-70
2022/04/26 09:34:49;;;;;;;6.23;3.03;;;;;;;;;;5091866;28;20413;-70
2022/04/26 09:37:16;;;;;;;1.07;1.07;;;;;;;;;;5079421;28;20483;-71
2022/04/26 09:40:01;;;;;;;1.10;1.10;;;22.20;56.30;;;;;;5083397;28;20822;-70
2022/04/26 09:42:31;;;;;;;1.20;1.20;;;22.10;51.40;;;;;;5079700;28;20853;-71
2022/04/26 09:45:07;;;;;;;0.83;0.83;;;21.80;58.60;;;;;;5090824;28;20412;-70
2022/04/26 09:47:40;;;;;;;1.63;1.53;;;22.40;66.80;;;;;;5062211;28;21036;-69
2022/04/26 09:50:09;;;;;;;1.57;1.20;;;22.20;56.20;;;;;;5071741;28;20909;-69
2022/04/26 09:52:35;;;;;;;1.30;1.30;;;;;;;;;;5072554;28;20522;-68
2022/04/26 09:55:01;;;;;;;3.23;1.20;;;;;;;;;;5068706;28;20505;-69
2022/04/26 09:57:30;;;;;;;1.03;1.03;;;22.30;64.70;;;;;;5071424;28;20828;-70
2022/04/26 09:59:56;;;;;;;1.20;1.10;;;;;;;;;;5074092;28;20433;-68
2022/04/26 10:02:26;;;;;;;1.30;1.30;;;21.90;56.50;;;;;;5072527;28;20269;-69
2022/04/26 10:04:55;;;;;;;1.20;1.10;;;21.90;60.70;;;;;;5071257;28;20182;-69
2022/04/26 10:07:23;;;;;;;3.17;1.73;;;22.50;65.10;;;;;;5072583;28;20440;-70
2022/04/26 10:09:49;;;;;;;0.75;0.75;;;;;;;;;;5079665;28;20445;-68
2022/04/26 10:12:16;;;;;;;0.87;0.87;;;;;;;;;;5070860;28;20183;-68
2022/04/26 10:14:42;;;;;;;0.80;0.80;;;22.30;56.20;;;;;;5085836;28;20437;-68
2022/04/26 10:17:08;;;;;;;1.00;1.00;;;;;;;;;;5080542;28;20427;-68
2022/04/26 10:19:39;;;;;;;1.27;1.27;;;22.20;51.00;;;;;;5061302;28;20547;-68
2022/04/26 10:22:05;;;;;;;1.10;1.10;;;;;;;;;;5077229;28;20568;-68
2022/04/26 10:24:30;;;;;;;1.17;1.17;;;;;;;;;;5062949;28;20516;-68
2022/04/26 10:27:29;;;;;;;1.83;1.70;;;22.20;63.80;;;;;;5070329;28;20189;-67
2022/04/26 10:29:55;;;;;;;1.30;1.30;;;;;;;;;;5055343;28;20551;-67
2022/04/26 10:32:28;;;;;;;0.93;0.93;;;22.30;55.90;;;;;;5073111;28;20181;-68
2022/04/26 10:34:54;;;;;;;0.97;0.97;;;;;;;;;;5066285;28;20421;-67
2022/04/26 10:37:20;;;;;;;1.10;1.10;;;;;;;;;;5070174;28;20420;-67
2022/04/26 10:39:57;;;;;;;1.30;1.30;;;22.20;61.50;;;;;;5050266;28;20441;-67
2022/04/26 10:42:28;;;;;;;0.80;0.80;;;22.10;50.60;;;;;;5088965;28;20202;-67
2022/04/26 10:45:10;;;;;;;1.23;1.13;;;22.10;51.10;;;;;;5073873;28;20432;-67
2022/04/26 10:47:36;;;;;;;0.93;0.93;;;;;;;;;;5079002;28;20487;-67
2022/04/26 10:50:05;;;;;;;1.73;1.40;;;22.10;55.80;;;;;;5070152;28;20418;-67
2022/04/26 10:52:40;;;;;;;1.07;1.07;;;22.10;55.30;;;;;;5083133;28;20428;-67
2022/04/26 10:55:08;;;;;;;1.20;1.20;;;22.10;63.70;;;;;;5090479;28;20420;-67
2022/04/26 10:57:45;;;;;;;1.00;1.00;;;21.60;63.50;;;;;;5080504;28;20548;-67
2022/04/26 11:00:11;;;;;;;1.43;1.43;;;;;;;;;;5073340;28;20500;-70
2022/04/26 11:02:39;;;;;;;1.20;1.20;;;22.20;55.70;;;;;;5058645;28;20453;-68
2022/04/26 11:05:10;;;;;;;1.20;1.20;;;22.50;51.00;;;;;;5070183;28;20413;-68
2022/04/26 11:07:41;;;;;;;1.00;1.00;;;22.60;56.30;;;;;;5072460;28;20614;-68
2022/04/26 11:10:08;;;;;;;1.30;1.20;;;22.20;55.80;;;;;;5069958;28;20413;-69
2022/04/26 11:12:37;;;;;;;1.47;1.37;;;22.20;55.90;;;;;;5069699;28;20421;-68
2022/04/26 11:15:08;;;;;;;1.63;1.57;;;22.20;51.40;;;;;;5065889;28;20822;-69
2022/04/26 11:17:35;;;;;;;1.50;1.50;;;22.30;55.60;;;;;;5069423;28;20428;-68
2022/04/26 11:20:18;;;;;;;1.40;1.30;;;21.70;55.70;;;;;;5084385;28;20420;-68
2022/04/26 11:22:49;;;;;;;1.10;1.10;;;22.20;63.90;;;;;;5069303;28;20454;-73
2022/04/26 11:28:18;;;;;;;1.20;1.20;;;22.00;55.20;;;;;;5069965;28;20854;-69
2022/04/26 11:30:48;;;;;;;1.10;1.10;;;22.30;51.20;;;;;;5069144;28;20846;-68
2022/04/26 11:33:19;;;;;;;1.10;1.10;;;22.40;53.40;;;;;;5069689;28;20416;-71
2022/04/26 11:35:54;;;;;;;1.17;1.17;;;22.40;55.80;;;;;;5069529;28;20406;-70
2022/04/26 11:38:20;;;;;;;1.27;1.27;;;;;;;;;;5049665;28;20895;-69
2022/04/26 11:40:49;;;;;;;1.30;1.30;;;22.30;55.70;;;;;;5049487;28;20402;-69
2022/04/26 11:43:20;;;;;;;1.23;1.23;;;21.10;55.30;;;;;;5049274;28;20910;-69
2022/04/26 11:45:48;;;;;;;1.07;1.07;;;22.40;56.10;;;;;;5049100;28;20509;-68
2022/04/26 11:48:15;;;;;;;1.73;1.13;;;22.40;56.20;;;;;;5049221;28;20885;-68
2022/04/26 11:50:43;;;;;;;1.20;1.20;;;22.40;54.40;;;;;;5049310;28;20528;-69
2022/04/26 11:53:16;;;;;;;1.30;1.30;;;22.40;50.70;;;;;;5049195;28;20414;-66
2022/04/26 11:55:43;;;;;;;3.43;1.10;;;22.40;55.60;;;;;;5065120;28;20453;-69
2022/04/26 11:58:18;;;;;;;1.10;1.10;;;22.40;50.80;;;;;;5086299;28;20563;-69
2022/04/26 12:00:53;;;;;;;1.27;1.27;;;22.40;50.90;;;;;;5087541;28;20427;-70
2022/04/26 12:03:20;;;;;;;1.80;1.17;;;22.40;60.30;;;;;;5085923;28;20458;-69
2022/04/26 12:05:51;;;;;;;0.93;0.93;;;22.40;55.80;;;;;;5087484;28;20416;-70
2022/04/26 12:08:17;;;;;;;1.07;1.07;;;;;;;;;;5073353;28;20197;-70
2022/04/26 12:10:47;;;;;;;1.33;1.23;;;;;;;;;;5069421;28;20402;-69
2022/04/26 12:13:13;;;;;;;1.00;1.00;;;;;;;;;;5069166;28;20397;-69
2022/04/26 12:15:39;;;;;;;1.30;1.30;;;;;;;;;;5070034;28;20421;-69
2022/04/26 12:18:10;;;;;;;1.20;1.20;;;22.40;51.00;;;;;;5069281;28;20519;-70
2022/04/26 12:20:54;;;;;;;1.13;1.07;;;22.40;55.80;;;;;;5069207;28;20962;-69
2022/04/26 12:23:21;;;;;;;1.20;1.20;;;22.40;55.80;;;;;;5069312;28;20460;-69
2022/04/26 12:26:00;;;;;;;1.00;1.00;;;22.40;51.20;;;;;;5070013;28;20422;-69
2022/04/26 12:28:27;;;;;;;1.20;1.20;;;;;;;;;;5069512;28;20437;-70
2022/04/26 12:30:53;;;;;;;0.97;0.97;;;;;;;;;;5071507;28;20743;-68
2022/04/26 12:33:45;;;;;;;1.23;1.23;;;22.40;51.10;;;;;;5070225;28;20428;-68
2022/04/26 12:36:11;;;;;;;1.20;1.20;;;;;;;;;;5069260;28;20441;-66
2022/04/26 12:38:46;;;;;;;2.50;1.00;;;22.50;51.10;;;;;;5072074;28;20818;-71
2022/04/26 12:41:12;;;;;;;1.00;1.00;;;;;;;;;;5066915;28;20183;-72
2022/04/26 12:43:38;;;;;;;1.03;1.03;;;;;;;;;;5075472;28;20436;-69
2022/04/26 12:46:06;;;;;;;1.10;1.10;;;22.50;58.00;;;;;;5074773;28;20467;-69
2022/04/26 12:51:18;;;;;;;3.13;1.03;;;;;;;;;;5084549;28;20436;-70
2022/04/26 12:53:45;;;;;;;1.10;1.10;;;;;;;;;;5068822;28;20424;-70
2022/04/26 12:56:11;;;;;;;1.10;1.10;;;22.70;55.10;;;;;;5072186;28;20401;-69
2022/04/26 12:58:39;;;;;;;0.93;0.93;;;22.70;63.30;;;;;;5080236;28;20436;-69
2022/04/26 13:01:06;;;;;;;0.98;0.98;;;22.70;55.20;;;;;;5067046;28;20524;-70
2022/04/26 13:03:32;;;;;;;1.00;1.00;;;22.70;53.60;;;;;;5073642;28;20246;-71
2022/04/26 13:06:10;;;;;;;1.37;0.90;;;22.70;50.40;;;;;;5069987;28;20405;-72
2022/04/26 13:08:36;;;;;;;1.13;1.13;;;;;;;;;;5072852;28;20448;-71
2022/04/26 13:11:02;;;;;;;1.03;1.03;;;;;;;;;;5067279;28;20425;-67
2022/04/26 13:13:28;;;;;;;1.42;1.02;;;22.90;77.60;;;;;;5073176;28;20444;-68
2022/04/26 13:15:54;;;;;;;1.47;1.10;;;;;;;;;;5075889;28;20187;-73
2022/04/26 13:18:19;;;;;;;0.90;0.90;;;22.70;84.50;;;;;;5082522;28;20207;-69
2022/04/26 13:20:46;;;;;;;0.97;0.97;;;22.80;79.60;;;;;;5081198;28;20960;-70
2022/04/26 13:23:12;;;;;;;0.98;0.98;;;;;;;;;;5086995;28;20199;-70
2022/04/26 13:25:38;;;;;;;1.03;1.03;;;;;;;;;;5073163;28;20719;-69
2022/04/26 13:28:05;;;;;;;0.90;0.90;;;22.70;54.70;;;;;;5087183;28;20532;-68
2022/04/26 13:30:31;;;;;;;1.03;1.03;;;;;;;;;;5085994;28;20436;-70
2022/04/26 13:32:57;;;;;;;0.97;0.97;;;;;;;;;;5076975;28;20417;-70
2022/04/26 13:35:25;;;;;;;1.27;1.17;;;;;;;;;;5072951;28;20437;-68
2022/04/26 13:37:52;;;;;;;0.97;0.97;;;;;;;;;;5072576;28;20233;-68
2022/04/26 13:40:19;;;;;;;1.13;1.13;;;22.40;57.00;;;;;;5091782;28;20492;-65
2022/04/26 13:42:45;;;;;;;0.70;0.70;;;;;;;;;;5089525;28;20448;-71
2022/04/26 13:45:11;;;;;;;1.27;1.17;;;;;;;;;;5086475;28;20924;-70
2022/04/26 13:47:38;;;;;;;1.40;1.37;;;;;;;;;;5087467;28;20567;-70
2022/04/26 13:50:06;;;;;;;1.00;1.00;;;23.10;55.20;;;;;;5081711;28;20914;-69
2022/04/26 13:52:32;;;;;;;1.40;1.30;;;;;;;;;;5080280;28;20425;-70
2022/04/26 13:54:58;;;;;;;1.10;1.10;;;;;;;;;;5084753;28;20427;-69
2022/04/26 13:57:24;;;;;;;1.00;0.90;;;;;;;;;;5083765;28;20301;-69
2022/04/26 13:59:50;;;;;;;1.10;1.10;;;;;;;;;;5072782;28;21128;-70
2022/04/26 14:02:16;;;;;;;0.97;0.97;;;;;;;;;;5074341;28;20207;-70
2022/04/26 14:04:42;;;;;;;0.87;0.87;;;;;;;;;;5073760;28;20429;-71
2022/04/26 14:07:09;;;;;;;0.90;0.90;;;;;;;;;;5075325;28;20417;-70
2022/04/26 14:09:35;;;;;;;1.10;1.10;;;;;;;;;;5086088;28;20521;-67
2022/04/26 14:12:01;;;;;;;1.10;1.10;;;;;;;;;;5059320;28;20174;-66
2022/04/26 14:22:43;;;;;;;0.97;0.97;;;;;;;;;;5063283;28;20481;-66
2022/04/26 14:25:10;;;;;;;1.10;1.10;;;22.50;71.40;;;;;;5072782;28;20417;-66
2022/04/26 14:27:37;;;;;;;0.77;0.70;;;22.50;73.80;;;;;;5071646;28;20925;-66
2022/04/26 14:30:07;;;;;;;1.03;1.03;;;22.40;72.90;;;;;;5072705;28;21169;-67
2022/04/26 14:32:33;;;;;;;0.80;0.80;;;;;;;;;;5070902;28;20416;-66
2022/04/26 14:34:59;;;;;;;0.90;0.90;;;;;;;;;;5070672;28;20445;-67
2022/04/26 14:37:25;;;;;;;1.80;1.20;;;;;;;;;;5070487;28;20415;-66
2022/04/26 14:39:51;;;;;;;1.00;1.00;;;;;;;;;;5069913;28;20540;-66
2022/04/26 14:42:17;;;;;;;1.40;1.30;;;;;;;;;;5071314;28;20498;-66
2022/04/26 14:44:43;;;;;;;2.23;2.13;;;;;;;;;;5071128;28;20406;-66
2022/04/26 14:47:09;;;;;;;0.80;0.80;;;;;;;;;;5068275;28;20457;-66
2022/04/26 14:49:35;;;;;;;0.73;0.73;;;;;;;;;;5070134;28;20546;-67
2022/04/26 14:52:01;;;;;;;1.08;1.08;;;;;;;;;;5068953;28;20725;-67
2022/04/26 14:54:28;;;;;;;1.40;1.30;;;;;;;;;;5067090;28;20552;-67
2022/04/26 14:56:54;;;;;;;1.30;1.20;;;;;;;;;;5070169;28;20516;-67
2022/04/26 14:59:22;;;;;;;1.50;1.50;;;22.50;62.70;;;;;;5070254;28;20517;-67
2022/04/26 15:01:49;;;;;;;1.20;1.10;;;22.50;52.30;;;;;;5070114;28;20461;-67
2022/04/26 15:04:23;;;;;;;1.00;1.00;;;22.60;50.50;;;;;;5089739;28;20181;-67
2022/04/26 15:06:49;;;;;;;0.97;0.97;;;22.60;54.00;;;;;;5082732;28;20433;-67
2022/04/26 15:17:29;;;;;;;0.93;0.93;;;;;;;;;;5069649;28;20475;-67
2022/04/26 15:19:55;;;;;;;0.80;0.80;;;;;;;;;;5069662;28;20473;-67
2022/04/26 15:22:22;;;;;;;0.83;0.83;;;;;;;;;;5069803;28;20472;-67
2022/04/26 15:24:50;;;;;;;0.60;0.60;;;23.80;55.10;;;;;;5070887;28;20421;-67
2022/04/26 15:27:16;;;;;;;0.67;0.67;;;;;;;;;;5069210;28;20176;-67
2022/04/26 15:29:42;;;;;;;1.33;1.33;;;22.70;53.10;;;;;;5085739;28;20465;-67
2022/04/26 15:32:08;;;;;;;0.90;0.90;;;20.90;58.70;;;;;;5089756;28;20422;-67
2022/04/26 15:34:34;;;;;;;1.23;1.13;;;;;;;;;;5089896;28;20523;-67
2022/04/26 15:37:00;;;;;;;0.90;0.90;;;;;;;;;;5079506;28;20405;-67
2022/04/26 15:39:26;;;;;;;0.80;0.80;;;;;;;;;;5070144;28;21101;-67
2022/04/26 15:41:52;;;;;;;1.10;1.10;;;22.80;70.30;;;;;;5089593;28;20501;-67
2022/04/26 15:44:19;;;;;;;0.70;0.70;;;;;;;;;;5089729;28;20420;-67
2022/04/26 15:46:49;;;;;;;0.80;0.80;;;22.60;52.40;;;;;;5089115;28;20427;-67
2022/04/26 15:49:19;;;;;;;0.90;0.90;;;22.60;54.50;;;;;;5072301;28;20194;-67
2022/04/26 15:51:45;;;;;;;1.10;1.10;;;;;;;;;;5076501;28;20501;-67
2022/04/26 15:54:11;;;;;;;1.00;1.00;;;;;;;;;;5079923;28;20491;-67
2022/04/26 15:56:39;;;;;;;0.90;0.90;;;;;;;;;;5089211;28;20404;-67
2022/04/26 15:59:04;;;;;;;0.80;0.80;;;;;;;;;;5088897;28;20419;-67
2022/04/26 16:01:30;;;;;;;1.10;1.10;;;;;;;;;;5075004;28;20493;-67
2022/04/26 16:03:56;;;;;;;1.27;1.23;;;;;;;;;;5081085;28;20197;-67
2022/04/26 16:06:22;;;;;;;1.00;1.00;;;;;;;;;;5089139;28;20166;-67
2022/04/26 16:08:48;;;;;;;1.03;0.93;;;;;;;;;;5084941;28;20277;-67
2022/04/26 16:22:12;;;;;;;0.70;0.60;;;;;;;;;;5073163;28;20298;-67
2022/04/26 16:24:41;;;;;;;1.00;1.00;;;;;;;;;;5090050;28;20499;-66
2022/04/26 16:27:07;;;;;;;1.07;1.07;;;22.30;62.50;;;;;;5093016;28;20416;-67
2022/04/26 16:29:34;;;;;;;1.25;1.25;;;;;;;;;;5093506;28;20432;-67
2022/04/26 16:31:59;;;;;;;1.10;1.10;;;22.60;65.90;;;;;;5093613;28;20545;-67
2022/04/26 16:34:25;;;;;;;1.00;0.90;;;;;;;;;;5077660;28;20425;-67
2022/04/26 16:36:51;;;;;;;0.77;0.77;;;;;;;;;;5072498;28;20175;-67
2022/04/26 16:39:17;;;;;;;0.80;0.80;;;;;;;;;;5073341;28;20440;-67
2022/04/26 16:41:43;;;;;;;0.70;0.70;;;;;;;;;;5071625;28;20465;-66
2022/04/26 16:44:09;;;;;;;1.00;0.90;;;;;;;;;;5086063;28;20540;-67
2022/04/26 16:46:36;;;;;;;1.33;0.80;;;;;;;;;;5077326;28;20225;-67
2022/04/26 16:49:03;;;;;;;0.93;0.93;;;22.40;60.30;;;;;;5072990;28;20436;-67
2022/04/26 16:51:30;;;;;;;1.00;0.87;;;;;;;;;;5072279;28;20285;-67
2022/04/26 16:53:56;;;;;;;1.00;1.00;;;22.30;54.60;;;;;;5073242;28;20423;-66
2022/04/26 16:56:22;;;;;;;0.73;0.73;;;;;;;;;;5071956;28;20826;-68
2022/04/26 16:58:48;;;;;;;1.00;1.00;;;;;;;;;;5072605;28;20500;-67
2022/04/26 17:01:14;;;;;;;1.30;0.90;;;;;;;;;;5079312;28;20957;-67
2022/04/26 17:03:40;;;;;;;0.83;0.83;;;22.20;63.50;;;;;;5082143;28;20469;-67
2022/04/26 17:06:06;;;;;;;0.87;0.87;;;;;;;;;;5066735;28;20250;-67
2022/04/26 17:08:32;;;;;;;0.87;0.87;;;;;;;;;;5069973;28;20199;-67
2022/04/26 17:11:43;;;;;;;1.10;1.10;;;;;;;;;;5077226;28;20956;-67
2022/04/26 17:13:45;;;;;;;1.10;1.10;;;22.40;54.10;;;;;;5071158;28;20471;-67
2022/04/26 17:16:10;;;;;;;0.90;0.90;;;;;;;;;;5071621;28;20756;-67
2022/04/26 17:18:37;;;;;;;0.83;0.83;;;;;;;;;;5071980;28;20514;-67
2022/04/26 17:21:03;;;;;;;1.10;1.00;;;;;;;;;;5079846;28;20671;-67
2022/04/26 17:23:29;;;;;;;0.97;0.97;;;;;;;;;;5071578;28;20465;-67
2022/04/26 17:25:55;;;;;;;0.70;0.70;;;;;;;;;;5068880;28;20578;-67
2022/04/26 17:28:23;;;;;;;1.00;1.00;;;;;;;;;;5071580;28;20179;-67
2022/04/26 17:30:49;;;;;;;1.10;1.10;;;;;;;;;;5081329;28;20899;-68
2022/04/26 17:33:15;;;;;;;1.10;1.10;;;;;;;;;;5086881;28;20421;-69
2022/04/26 17:35:41;;;;;;;2.50;0.87;;;22.60;69.60;;;;;;5087122;28;20424;-68
2022/04/26 17:38:07;;;;;;;1.20;1.20;;;;;;;;;;5069244;28;20975;-68
2022/04/26 17:40:33;;;;;;;0.80;0.80;;;22.40;52.90;;;;;;5064000;28;20536;-66
2022/04/26 17:42:59;;;;;;;1.00;1.00;;;;;;;;;;5075008;28;20577;-66
2022/04/26 17:45:25;;;;;;;0.80;0.80;;;;;;;;;;5072221;28;20934;-66
2022/04/26 17:47:51;;;;;;;0.75;0.75;;;;;;;;;;5076788;28;20198;-66
2022/04/26 17:50:17;;;;;;;1.20;1.20;;;;;;;;;;5091010;28;20495;-66
2022/04/26 17:58:13;;;;;;;0.88;0.63;;;;;;;;;;5091753;28;20439;-66
2022/04/26 18:00:39;;;;;;;0.73;0.73;;;;;;;;;;5082960;28;20179;-66
2022/04/26 18:03:05;;;;;;;0.63;0.63;;;;;;;;;;5075386;28;20572;-66
2022/04/26 18:05:31;;;;;;;0.60;0.60;;;;;;;;;;5071016;28;20446;-66
2022/04/26 18:07:57;;;;;;;0.90;0.90;;;22.50;78.90;;;;;;5069664;28;20441;-67
2022/04/26 18:10:23;;;;;;;0.80;0.80;;;;;;;;;;5071106;28;20439;-66
2022/04/26 18:12:49;;;;;;;0.63;0.63;;;;;;;;;;5075074;28;20231;-66
2022/04/26 18:15:15;;;;;;;1.00;0.90;;;;;;;;;;5091384;28;20171;-66
2022/04/26 18:17:41;;;;;;;0.80;0.80;;;;;;;;;;5090819;28;20499;-66
2022/04/26 18:20:07;;;;;;;0.70;0.70;;;;;;;;;;5071519;28;20430;-66
2022/04/26 18:22:33;;;;;;;0.80;0.80;;;;;;;;;;5070397;28;20568;-66
2022/04/26 18:24:59;;;;;;;1.10;1.10;;;;;;;;;;5071138;28;20902;-66